createdAt,value
2023-03-08T00:01:24.497Z,1.10
2023-03-08T00:03:54.608Z,1.10
2023-03-08T00:06:23.878Z,1.10
2023-03-08T00:08:57.878Z,1.10
2023-03-08T00:11:26.876Z,1.10
2023-03-08T00:13:55.642Z,1.10
2023-03-08T00:16:24.678Z,1.10
2023-03-08T00:18:53.282Z,1.10
2023-03-08T00:21:22.221Z,1.10
2023-03-08T00:23:54.021Z,1.10
2023-03-08T00:26:24.120Z,1.10
2023-03-08T00:28:53.161Z,1.10
2023-03-08T00:31:21.717Z,1.10
2023-03-08T00:33:54.017Z,1.10
2023-03-08T00:36:23.347Z,1.10
2023-03-08T00:38:52.703Z,1.10
2023-03-08T00:41:22.964Z,1.10
2023-03-08T00:43:51.673Z,1.10
2023-03-08T00:46:20.077Z,1.10
2023-03-08T00:48:48.568Z,1.10
2023-03-08T00:51:18.946Z,1.00
2023-03-08T00:53:47.454Z,1.00
2023-03-08T00:56:18.809Z,1.00
2023-03-08T00:58:49.121Z,1.00
2023-03-08T01:01:23.498Z,1.00
2023-03-08T01:03:52.416Z,1.00
2023-03-08T01:06:20.783Z,1.00
2023-03-08T01:08:53.062Z,1.00
2023-03-08T01:11:23.075Z,1.00
2023-03-08T01:13:53.742Z,1.00
2023-03-08T01:16:24.426Z,1.00
2023-03-08T01:18:53.092Z,1.00
2023-03-08T01:21:21.851Z,1.00
2023-03-08T01:23:50.838Z,1.00
2023-03-08T01:26:20.961Z,1.00
2023-03-08T01:28:50.156Z,1.00
2023-03-08T01:31:21.641Z,1.00
2023-03-08T01:33:50.567Z,0.90
2023-03-08T01:36:22.642Z,0.90
2023-03-08T01:38:51.734Z,0.90
2023-03-08T01:41:21.811Z,0.90
2023-03-08T01:43:50.408Z,0.90
2023-03-08T01:46:26.752Z,0.90
2023-03-08T01:49:01.253Z,0.90
2023-03-08T01:51:35.091Z,0.90
2023-03-08T01:54:07.396Z,0.90
2023-03-08T01:56:38.090Z,0.80
2023-03-08T01:59:06.707Z,0.80
2023-03-08T02:01:36.709Z,0.80
2023-03-08T02:04:05.330Z,0.80
2023-03-08T02:06:34.105Z,0.80
2023-03-08T02:09:05.117Z,0.80
2023-03-08T02:11:35.451Z,0.80
2023-03-08T02:14:03.963Z,0.80
2023-03-08T02:16:32.506Z,0.80
2023-03-08T02:19:04.845Z,0.80
2023-03-08T02:21:34.038Z,0.80
2023-03-08T02:24:08.063Z,0.80
2023-03-08T02:26:38.415Z,0.80
2023-03-08T02:29:06.828Z,0.80
2023-03-08T02:31:35.163Z,0.80
2023-03-08T02:34:03.509Z,0.80
2023-03-08T02:36:32.002Z,0.80
2023-03-08T02:39:00.467Z,0.80
2023-03-08T02:41:30.145Z,0.80
2023-03-08T02:43:58.622Z,0.80
2023-03-08T02:46:27.059Z,0.80
2023-03-08T02:48:55.303Z,0.80
2023-03-08T02:51:23.777Z,0.80
2023-03-08T02:53:52.363Z,0.80
2023-03-08T02:56:26.855Z,0.80
2023-03-08T02:58:56.635Z,0.80
2023-03-08T03:01:25.184Z,0.80
2023-03-08T03:03:55.617Z,0.80
2023-03-08T03:06:24.289Z,0.80
2023-03-08T03:08:52.744Z,0.80
2023-03-08T03:11:23.384Z,0.80
2023-03-08T03:13:58.734Z,0.80
2023-03-08T03:16:27.872Z,0.80
2023-03-08T03:18:57.406Z,0.70
2023-03-08T03:21:26.309Z,0.70
2023-03-08T03:23:56.495Z,0.70
2023-03-08T03:26:26.117Z,0.70
2023-03-08T03:28:58.770Z,0.70
2023-03-08T03:31:28.099Z,0.70
2023-03-08T03:33:56.605Z,0.70
2023-03-08T03:36:25.223Z,0.70
2023-03-08T03:38:53.783Z,0.70
2023-03-08T03:41:23.712Z,0.70
2023-03-08T03:43:52.765Z,0.70
2023-03-08T03:46:23.384Z,0.70
2023-03-08T03:48:52.359Z,0.70
2023-03-08T03:51:22.439Z,0.70
2023-03-08T03:53:51.106Z,0.70
2023-03-08T03:56:21.362Z,0.70
2023-03-08T03:58:50.314Z,0.70
2023-03-08T04:01:21.453Z,0.70
2023-03-08T04:03:51.456Z,0.70
2023-03-08T04:06:21.735Z,0.60
2023-03-08T04:08:53.156Z,0.60
2023-03-08T04:11:23.599Z,0.50
2023-03-08T04:13:52.010Z,0.50
2023-03-08T04:16:22.386Z,0.50
2023-03-08T04:18:55.358Z,0.50
2023-03-08T04:21:24.034Z,0.50
2023-03-08T04:23:52.630Z,0.40
2023-03-08T04:26:21.675Z,0.40
2023-03-08T04:28:50.064Z,0.40
2023-03-08T04:31:20.784Z,0.40
2023-03-08T04:33:51.258Z,0.30
2023-03-08T04:36:20.433Z,0.30
2023-03-08T04:38:49.619Z,0.30
2023-03-08T04:41:18.469Z,0.30
2023-03-08T04:43:48.814Z,0.30
2023-03-08T04:46:17.861Z,0.30
2023-03-08T04:48:46.740Z,0.30
2023-03-08T04:51:18.084Z,0.30
2023-03-08T04:53:46.844Z,0.30
2023-03-08T04:56:16.933Z,0.30
2023-03-08T04:58:46.003Z,0.30
2023-03-08T05:01:16.087Z,0.40
2023-03-08T05:03:44.825Z,0.40
2023-03-08T05:06:15.467Z,0.40
2023-03-08T05:08:44.025Z,0.40
2023-03-08T05:11:15.680Z,0.40
2023-03-08T05:13:44.095Z,0.40
2023-03-08T05:16:12.517Z,0.40
2023-03-08T05:18:40.919Z,0.40
2023-03-08T05:21:12.703Z,0.40
2023-03-08T05:23:45.907Z,0.40
2023-03-08T05:26:15.693Z,0.40
2023-03-08T05:28:44.194Z,0.40
2023-03-08T05:31:14.557Z,0.40
2023-03-08T05:33:44.412Z,0.40
2023-03-08T05:36:13.935Z,0.40
2023-03-08T05:38:42.578Z,0.40
2023-03-08T05:41:15.381Z,0.40
2023-03-08T05:43:43.921Z,0.40
2023-03-08T05:46:14.592Z,0.40
2023-03-08T05:48:43.081Z,0.40
2023-03-08T05:51:13.020Z,0.40
2023-03-08T05:53:42.003Z,0.40
2023-03-08T05:56:13.442Z,0.40
2023-03-08T05:58:43.700Z,0.50
2023-03-08T06:01:14.403Z,0.40
2023-03-08T06:03:43.123Z,0.40
2023-03-08T06:06:11.947Z,0.40
2023-03-08T06:08:40.945Z,0.40
2023-03-08T06:11:09.811Z,0.40
2023-03-08T06:13:39.924Z,0.40
2023-03-08T06:16:09.112Z,0.30
2023-03-08T06:18:39.275Z,0.30
2023-03-08T06:21:09.390Z,0.30
2023-03-08T06:23:38.228Z,0.40
2023-03-08T06:26:07.349Z,0.30
2023-03-08T06:28:36.520Z,0.40
2023-03-08T06:31:06.535Z,0.40
2023-03-08T06:33:35.853Z,0.40
2023-03-08T06:36:07.752Z,0.40
2023-03-08T06:38:38.149Z,0.40
2023-03-08T06:41:07.240Z,0.40
2023-03-08T06:43:36.802Z,0.40
2023-03-08T06:46:07.774Z,0.50
2023-03-08T06:48:36.467Z,0.50
2023-03-08T06:51:05.372Z,0.50
2023-03-08T06:53:36.138Z,0.50
2023-03-08T06:56:04.477Z,0.60
2023-03-08T06:58:33.168Z,0.60
2023-03-08T07:01:04.273Z,0.60
2023-03-08T07:03:34.872Z,0.60
2023-03-08T07:06:05.832Z,0.60
2023-03-08T07:08:34.616Z,0.70
2023-03-08T07:11:03.270Z,0.70
2023-03-08T07:13:31.616Z,0.70
2023-03-08T07:16:00.091Z,0.70
2023-03-08T07:18:28.509Z,0.80
2023-03-08T07:20:59.092Z,0.80
2023-03-08T07:23:27.527Z,0.90
2023-03-08T07:25:57.142Z,0.90
2023-03-08T07:28:25.827Z,0.90
2023-03-08T07:30:55.074Z,0.90
2023-03-08T07:33:23.609Z,1.00
2023-03-08T07:35:52.024Z,1.00
2023-03-08T07:38:21.857Z,1.10
2023-03-08T07:40:56.167Z,1.10
2023-03-08T07:43:24.763Z,1.20
2023-03-08T07:45:53.142Z,1.20
2023-03-08T07:48:21.384Z,1.20
2023-03-08T07:50:49.772Z,1.20
2023-03-08T07:53:18.151Z,1.20
2023-03-08T07:55:48.207Z,1.20
2023-03-08T07:58:16.574Z,1.30
2023-03-08T08:00:45.043Z,1.30
2023-03-08T08:03:13.516Z,1.30
2023-03-08T08:05:41.966Z,1.30
2023-03-08T08:08:10.567Z,1.30
2023-03-08T08:10:39.145Z,1.40
2023-03-08T08:13:09.129Z,1.40
2023-03-08T08:15:37.452Z,1.50
2023-03-08T08:18:06.522Z,1.50
2023-03-08T08:20:34.964Z,1.50
2023-03-08T08:23:06.550Z,1.50
2023-03-08T08:25:34.963Z,1.60
2023-03-08T08:28:03.392Z,1.60
2023-03-08T08:30:33.335Z,1.60
2023-03-08T08:33:03.549Z,1.70
2023-03-08T08:35:42.622Z,1.70
2023-03-08T08:38:12.171Z,1.70
2023-03-08T08:40:40.420Z,1.70
2023-03-08T08:43:08.919Z,1.80
2023-03-08T08:45:38.661Z,1.90
2023-03-08T08:48:07.404Z,1.90
2023-03-08T08:50:35.814Z,2.00
2023-03-08T08:53:04.197Z,2.00
2023-03-08T08:55:32.841Z,2.00
2023-03-08T08:58:01.806Z,2.00
2023-03-08T09:00:42.228Z,2.00
2023-03-08T09:03:12.241Z,2.00
2023-03-08T09:05:42.881Z,2.10
2023-03-08T09:08:13.065Z,2.00
2023-03-08T09:10:42.486Z,2.00
2023-03-08T09:13:12.069Z,2.00
2023-03-08T09:15:40.565Z,2.00
2023-03-08T09:18:09.252Z,2.00
2023-03-08T09:20:39.230Z,2.00
2023-03-08T09:23:10.877Z,2.00
2023-03-08T09:25:39.448Z,2.00
2023-03-08T09:28:07.830Z,2.00
2023-03-08T09:30:36.415Z,2.00
2023-03-08T09:33:04.986Z,2.10
2023-03-08T09:35:33.553Z,2.10
2023-03-08T09:38:03.391Z,2.10
2023-03-08T09:40:46.364Z,2.10
2023-03-08T09:43:25.769Z,2.20
2023-03-08T09:45:55.563Z,2.20
2023-03-08T09:48:29.812Z,2.10
2023-03-08T09:51:00.802Z,2.00
2023-03-08T09:53:35.599Z,2.00
2023-03-08T09:56:06.421Z,2.00
2023-03-08T09:58:44.120Z,2.00
2023-03-08T10:01:23.016Z,2.00
2023-03-08T10:04:29.960Z,2.00
2023-03-08T10:07:22.500Z,2.00
2023-03-08T10:10:03.759Z,1.90
2023-03-08T10:12:37.957Z,2.00
2023-03-08T10:15:12.322Z,1.90
2023-03-08T10:17:46.090Z,2.00
2023-03-08T10:20:22.727Z,2.00
2023-03-08T10:22:58.206Z,2.00
2023-03-08T10:25:31.467Z,2.10
2023-03-08T10:28:02.019Z,2.00
2023-03-08T10:30:36.144Z,1.90
2023-03-08T10:33:13.989Z,1.90
2023-03-08T10:35:55.974Z,1.90
2023-03-08T10:38:25.581Z,2.00
2023-03-08T10:41:07.231Z,1.90
2023-03-08T10:43:40.647Z,1.80
2023-03-08T10:46:14.889Z,1.70
2023-03-08T10:48:43.734Z,1.80
2023-03-08T10:51:18.596Z,1.80
2023-03-08T10:53:55.651Z,1.80
2023-03-08T10:56:29.265Z,1.80
2023-03-08T10:58:59.439Z,1.80
2023-03-08T11:01:30.583Z,1.90
2023-03-08T11:04:04.562Z,2.00
2023-03-08T11:06:35.197Z,2.10
2023-03-08T11:09:06.329Z,2.00
2023-03-08T11:11:44.176Z,1.90
2023-03-08T11:14:13.301Z,1.90
2023-03-08T11:16:52.991Z,2.00
2023-03-08T11:19:33.678Z,2.10
2023-03-08T11:22:10.294Z,2.20
2023-03-08T11:24:58.383Z,2.00
2023-03-08T11:27:38.934Z,1.90
2023-03-08T11:30:33.593Z,2.00
2023-03-08T11:33:28.589Z,2.00
2023-03-08T11:36:04.302Z,2.10
2023-03-08T11:38:35.014Z,2.20
2023-03-08T11:41:10.590Z,2.30
2023-03-08T11:44:01.423Z,2.50
2023-03-08T11:46:46.514Z,2.70
2023-03-08T11:49:43.242Z,2.60
2023-03-08T11:52:23.606Z,2.60
2023-03-08T11:55:02.669Z,2.60
2023-03-08T11:57:36.546Z,2.70
2023-03-08T12:00:16.465Z,2.80
2023-03-08T12:02:48.420Z,2.70
2023-03-08T12:05:25.619Z,2.70
2023-03-08T12:07:59.878Z,2.50
2023-03-08T12:10:37.187Z,2.50
2023-03-08T12:13:15.410Z,2.40
2023-03-08T12:15:50.166Z,2.40
2023-03-08T12:18:24.539Z,2.40
2023-03-08T12:20:58.740Z,2.50
2023-03-08T12:23:35.315Z,2.40
2023-03-08T12:26:08.636Z,2.40
2023-03-08T12:28:41.854Z,2.30
2023-03-08T12:31:28.364Z,2.20
2023-03-08T12:33:59.640Z,2.20
2023-03-08T12:36:39.226Z,2.20
2023-03-08T12:39:10.986Z,2.30
2023-03-08T12:41:39.509Z,2.20
2023-03-08T12:44:23.973Z,2.30
2023-03-08T12:47:03.525Z,2.30
2023-03-08T12:49:34.855Z,2.40
2023-03-08T12:52:06.559Z,2.40
2023-03-08T12:54:36.898Z,2.50
2023-03-08T12:57:17.341Z,2.50
2023-03-08T12:59:47.282Z,2.50
2023-03-08T13:02:31.329Z,2.50
2023-03-08T13:05:19.568Z,2.40
2023-03-08T13:08:04.485Z,2.50
2023-03-08T13:10:35.561Z,2.50
2023-03-08T13:13:37.545Z,2.40
2023-03-08T13:16:19.440Z,2.50
2023-03-08T13:18:53.932Z,2.40
2023-03-08T13:21:34.732Z,2.40
2023-03-08T13:24:11.341Z,2.30
2023-03-08T13:26:59.870Z,2.30
2023-03-08T13:29:31.649Z,2.30
2023-03-08T13:32:06.333Z,2.40
2023-03-08T13:34:38.669Z,2.30
2023-03-08T13:37:07.278Z,2.40
2023-03-08T13:39:35.685Z,2.30
2023-03-08T13:42:09.005Z,2.30
2023-03-08T13:44:37.642Z,2.30
2023-03-08T13:47:19.835Z,2.30
2023-03-08T13:49:51.886Z,2.30
2023-03-08T13:52:25.977Z,2.30
2023-03-08T13:54:56.899Z,2.30
2023-03-08T13:57:28.021Z,2.30
2023-03-08T13:59:58.039Z,2.30
2023-03-08T14:02:28.408Z,2.30
2023-03-08T14:04:58.756Z,2.30
2023-03-08T14:07:29.152Z,2.30
2023-03-08T14:09:57.888Z,2.40
2023-03-08T14:12:29.665Z,2.40
2023-03-08T14:15:01.492Z,2.40
2023-03-08T14:17:32.214Z,2.40
2023-03-08T14:20:05.270Z,2.50
2023-03-08T14:22:39.879Z,2.50
2023-03-08T14:25:22.530Z,2.50
2023-03-08T14:27:51.205Z,2.50
2023-03-08T14:30:22.134Z,2.60
2023-03-08T14:33:06.356Z,2.60
2023-03-08T14:35:38.673Z,2.60
2023-03-08T14:38:15.747Z,2.60
2023-03-08T14:40:49.617Z,2.50
2023-03-08T14:43:20.534Z,2.50
2023-03-08T14:45:55.287Z,2.50
2023-03-08T14:48:26.162Z,2.50
2023-03-08T14:50:59.320Z,2.60
2023-03-08T14:53:31.391Z,2.60
2023-03-08T14:56:01.326Z,2.50
2023-03-08T14:58:31.965Z,2.50
2023-03-08T15:01:04.541Z,2.50
2023-03-08T15:03:34.409Z,2.40
2023-03-08T15:06:21.645Z,2.40
2023-03-08T15:08:51.131Z,2.40
2023-03-08T15:11:19.511Z,2.40
2023-03-08T15:13:48.579Z,2.40
2023-03-08T15:16:17.069Z,2.30
2023-03-08T15:18:45.477Z,2.30
2023-03-08T15:21:20.718Z,2.30
2023-03-08T15:23:49.318Z,2.30
2023-03-08T15:26:23.200Z,2.40
2023-03-08T15:28:52.012Z,2.40
2023-03-08T15:31:21.874Z,2.40
2023-03-08T15:33:51.201Z,2.40
2023-03-08T15:36:21.936Z,2.40
2023-03-08T15:38:50.924Z,2.40
2023-03-08T15:41:19.388Z,2.40
2023-03-08T15:43:48.156Z,2.40
2023-03-08T15:46:16.967Z,2.30
2023-03-08T15:48:46.366Z,2.30
2023-03-08T15:51:19.688Z,2.30
2023-03-08T15:53:49.772Z,2.20
2023-03-08T15:56:18.537Z,2.20
2023-03-08T15:58:47.124Z,2.20
2023-03-08T16:01:15.994Z,2.20
2023-03-08T16:03:44.344Z,2.20
2023-03-08T16:06:14.342Z,2.20
2023-03-08T16:08:43.117Z,2.10
2023-03-08T16:11:14.989Z,2.00
2023-03-08T16:13:43.586Z,2.00
2023-03-08T16:16:12.046Z,1.90
2023-03-08T16:18:41.557Z,1.90
2023-03-08T16:21:10.412Z,1.80
2023-03-08T16:23:39.552Z,1.70
2023-03-08T16:26:15.707Z,1.70
2023-03-08T16:28:48.384Z,1.70
2023-03-08T16:31:17.818Z,1.70
2023-03-08T16:33:46.500Z,1.60
2023-03-08T16:36:15.684Z,1.60
2023-03-08T16:38:44.211Z,1.60
2023-03-08T16:41:14.138Z,1.50
2023-03-08T16:43:47.278Z,1.50
2023-03-08T16:46:19.657Z,1.40
2023-03-08T16:48:49.700Z,1.40
2023-03-08T16:51:20.755Z,1.40
2023-03-08T16:53:49.448Z,1.30
2023-03-08T16:56:22.177Z,1.30
2023-03-08T16:58:50.709Z,1.30
2023-03-08T17:01:24.082Z,1.30
2023-03-08T17:03:53.027Z,1.30
2023-03-08T17:06:23.478Z,1.20
2023-03-08T17:08:52.128Z,1.20
2023-03-08T17:11:23.093Z,1.20
2023-03-08T17:13:55.864Z,1.20
2023-03-08T17:16:27.932Z,1.20
2023-03-08T17:18:59.663Z,1.10
2023-03-08T17:21:29.427Z,1.10
2023-03-08T17:24:00.260Z,1.10
2023-03-08T17:26:28.857Z,1.10
2023-03-08T17:28:57.696Z,1.10
2023-03-08T17:31:27.772Z,1.10
2023-03-08T17:33:56.354Z,1.10
2023-03-08T17:36:26.198Z,1.10
2023-03-08T17:38:55.505Z,1.10
2023-03-08T17:41:24.914Z,1.10
2023-03-08T17:43:54.715Z,1.10
2023-03-08T17:46:25.307Z,1.10
2023-03-08T17:48:55.869Z,1.10
2023-03-08T17:51:26.540Z,1.10
2023-03-08T17:53:57.089Z,1.10
2023-03-08T17:56:31.061Z,1.10
2023-03-08T17:59:00.868Z,1.10
2023-03-08T18:01:31.778Z,1.10
2023-03-08T18:04:02.707Z,1.10
2023-03-08T18:06:36.101Z,1.00
2023-03-08T18:09:07.535Z,1.10
2023-03-08T18:11:38.032Z,1.10
2023-03-08T18:14:08.540Z,1.10
2023-03-08T18:16:37.300Z,1.10
2023-03-08T18:19:08.121Z,1.10
2023-03-08T18:21:40.631Z,1.10
2023-03-08T18:24:11.719Z,1.10
2023-03-08T18:26:40.356Z,1.10
2023-03-08T18:29:09.699Z,1.10
2023-03-08T18:31:38.739Z,1.10
2023-03-08T18:34:09.351Z,1.10
2023-03-08T18:36:38.381Z,1.10
2023-03-08T18:39:08.233Z,1.10
2023-03-08T18:41:36.999Z,1.10
2023-03-08T18:44:06.099Z,1.10
2023-03-08T18:46:35.129Z,1.10
2023-03-08T18:49:06.829Z,1.10
2023-03-08T18:51:38.757Z,1.10
2023-03-08T18:54:09.163Z,1.10
2023-03-08T18:56:37.905Z,1.10
2023-03-08T18:59:08.738Z,1.10
2023-03-08T19:01:37.552Z,1.10
2023-03-08T19:04:08.023Z,1.10
2023-03-08T19:06:38.170Z,1.10
2023-03-08T19:09:10.986Z,1.10
2023-03-08T19:11:39.494Z,1.10
2023-03-08T19:14:09.011Z,1.10
2023-03-08T19:16:37.621Z,1.10
2023-03-08T19:19:09.227Z,1.10
2023-03-08T19:21:41.352Z,1.10
2023-03-08T19:24:10.177Z,1.10
2023-03-08T19:26:41.152Z,1.10
2023-03-08T19:29:12.478Z,1.10
2023-03-08T19:31:43.375Z,1.10
2023-03-08T19:34:13.307Z,1.10
2023-03-08T19:36:44.274Z,1.10
2023-03-08T19:39:16.050Z,1.10
2023-03-08T19:41:45.343Z,1.10
2023-03-08T19:44:13.839Z,1.10
2023-03-08T19:46:42.566Z,1.10
2023-03-08T19:49:16.044Z,1.10
2023-03-08T19:51:49.163Z,1.10
2023-03-08T19:54:17.971Z,1.10
2023-03-08T19:56:46.973Z,1.10
2023-03-08T19:59:15.745Z,1.10
2023-03-08T20:01:44.306Z,1.10
2023-03-08T20:04:13.467Z,1.10
2023-03-08T20:06:46.069Z,1.10
2023-03-08T20:09:21.476Z,1.10
2023-03-08T20:11:53.174Z,1.10
2023-03-08T20:14:21.807Z,1.10
2023-03-08T20:16:51.193Z,1.10
2023-03-08T20:19:19.709Z,1.10
2023-03-08T20:21:48.441Z,1.10
2023-03-08T20:24:19.527Z,1.10
2023-03-08T20:26:49.736Z,1.10
2023-03-08T20:29:19.075Z,1.10
2023-03-08T20:31:48.416Z,1.10
2023-03-08T20:34:20.260Z,1.10
2023-03-08T20:36:48.648Z,1.10
2023-03-08T20:39:19.344Z,1.10
2023-03-08T20:41:47.892Z,1.10
2023-03-08T20:44:16.398Z,1.10
2023-03-08T20:46:45.019Z,1.10
2023-03-08T20:49:13.734Z,1.10
2023-03-08T20:51:42.333Z,1.10
2023-03-08T20:54:12.484Z,1.10
2023-03-08T20:56:42.347Z,1.10
2023-03-08T20:59:12.122Z,1.10
2023-03-08T21:01:42.112Z,1.10
2023-03-08T21:04:10.752Z,1.10
2023-03-08T21:06:39.394Z,1.10
2023-03-08T21:09:07.987Z,1.10
2023-03-08T21:11:36.520Z,1.10
2023-03-08T21:14:06.687Z,1.10
2023-03-08T21:16:35.624Z,1.10
2023-03-08T21:19:06.033Z,1.10
2023-03-08T21:21:36.232Z,1.10
2023-03-08T21:24:07.401Z,1.10
2023-03-08T21:26:36.310Z,1.10
2023-03-08T21:29:07.866Z,1.10
2023-03-08T21:31:37.971Z,1.10
2023-03-08T21:34:07.569Z,1.10
2023-03-08T21:36:38.029Z,1.20
2023-03-08T21:39:07.885Z,1.20
2023-03-08T21:41:38.762Z,1.20
2023-03-08T21:44:12.370Z,1.20
2023-03-08T21:46:42.041Z,1.20
2023-03-08T21:49:16.971Z,1.20
2023-03-08T21:51:45.749Z,1.20
2023-03-08T21:54:15.426Z,1.20
2023-03-08T21:56:45.256Z,1.20
2023-03-08T21:59:16.788Z,1.20
2023-03-08T22:01:48.286Z,1.20
2023-03-08T22:04:18.085Z,1.20
2023-03-08T22:06:47.193Z,1.20
2023-03-08T22:09:15.598Z,1.20
2023-03-08T22:11:44.258Z,1.20
2023-03-08T22:14:14.143Z,1.20
2023-03-08T22:16:42.714Z,1.20
2023-03-08T22:19:11.931Z,1.20
2023-03-08T22:21:40.410Z,1.20
2023-03-08T22:24:09.220Z,1.10
2023-03-08T22:26:37.627Z,1.10
2023-03-08T22:29:06.256Z,1.10
2023-03-08T22:31:36.110Z,1.10
2023-03-08T22:34:04.819Z,1.10
2023-03-08T22:36:33.168Z,1.10
2023-03-08T22:39:01.688Z,1.10
2023-03-08T22:41:30.585Z,1.10
2023-03-08T22:43:59.327Z,1.10
2023-03-08T22:46:29.065Z,1.10
2023-03-08T22:48:59.819Z,1.10
2023-03-08T22:51:28.863Z,1.00
2023-03-08T22:53:59.140Z,1.00
2023-03-08T22:56:30.674Z,1.00
2023-03-08T22:58:59.529Z,1.00
2023-03-08T23:01:29.814Z,1.00
2023-03-08T23:04:01.577Z,1.00
2023-03-08T23:06:31.889Z,1.00
2023-03-08T23:09:01.591Z,1.00
2023-03-08T23:11:30.780Z,1.00
2023-03-08T23:13:59.659Z,1.00
2023-03-08T23:16:28.567Z,1.00
2023-03-08T23:18:57.169Z,1.00
2023-03-08T23:21:29.814Z,1.00
2023-03-08T23:23:58.785Z,1.00
2023-03-08T23:26:28.745Z,1.00
2023-03-08T23:28:58.649Z,1.00
2023-03-08T23:31:29.583Z,1.00
2023-03-08T23:33:58.147Z,1.00
2023-03-08T23:36:29.699Z,1.00
2023-03-08T23:38:58.967Z,1.00
2023-03-08T23:41:27.610Z,1.00
2023-03-08T23:43:57.381Z,1.00
2023-03-08T23:46:27.154Z,1.00
2023-03-08T23:48:57.358Z,1.00
2023-03-08T23:51:28.746Z,1.00
2023-03-08T23:53:59.969Z,1.00
2023-03-08T23:56:31.402Z,1.00
2023-03-08T23:59:02.607Z,1.00
